Time;durP1;ratioP1;P1;durP2;ratioP2;P2;SDS_P1;SDS_P2;PMS_P1;PMS_P2;Temp;Humidity;BMP_temperature;BMP_pressure;BME280_temperature;BME280_humidity;BME280_pressure;Samples;Min_cycle;Max_cycle;Signal;HPM_P1;HPM_P2
2021/08/05 00:00:07;;;;;;;2.22;2.03;;;22.20;66.90;;;;;;4207228;28;20050;-51
2021/08/05 00:02:29;;;;;;;2.47;1.80;;;22.20;66.90;;;;;;4207040;28;20086;-48
2021/08/05 00:04:51;;;;;;;1.63;1.52;;;22.20;67.00;;;;;;4190469;28;20048;-54
2021/08/05 00:07:14;;;;;;;1.75;1.65;;;22.20;67.00;;;;;;4190709;28;20052;-52
2021/08/05 00:09:38;;;;;;;1.73;1.63;;;22.10;67.00;;;;;;4205491;28;20055;-51
2021/08/05 00:12:02;;;;;;;1.67;1.40;;;22.10;67.00;;;;;;4207361;28;20056;-54
2021/08/05 00:14:24;;;;;;;2.38;2.17;;;22.10;67.00;;;;;;4206987;28;20051;-53
2021/08/05 00:16:46;;;;;;;2.03;1.92;;;22.10;67.10;;;;;;4206893;28;20067;-51
2021/08/05 00:19:08;;;;;;;2.30;2.10;;;22.10;67.10;;;;;;4206825;28;20097;-54
2021/08/05 00:21:30;;;;;;;1.95;1.85;;;22.10;67.10;;;;;;4209488;28;20080;-52
2021/08/05 00:23:52;;;;;;;2.25;1.70;;;22.10;67.20;;;;;;4210099;28;20052;-53
2021/08/05 00:26:14;;;;;;;1.70;1.60;;;22.10;67.20;;;;;;4210176;28;20076;-54
2021/08/05 00:28:38;;;;;;;3.00;2.22;;;22.10;67.20;;;;;;4198495;28;20074;-52
2021/08/05 00:31:00;;;;;;;1.73;1.63;;;22.10;67.40;;;;;;4193493;28;20623;-53
2021/08/05 00:33:22;;;;;;;1.83;1.73;;;22.10;67.40;;;;;;4191531;28;20051;-53
2021/08/05 00:35:44;;;;;;;2.10;2.00;;;22.00;67.40;;;;;;4193103;28;20071;-54
2021/08/05 00:38:06;;;;;;;2.20;2.00;;;22.00;67.40;;;;;;4199775;28;20490;-51
2021/08/05 00:40:28;;;;;;;2.15;1.98;;;22.00;67.40;;;;;;4210058;28;20522;-51
2021/08/05 00:42:50;;;;;;;2.15;2.05;;;22.00;67.50;;;;;;4209538;28;20184;-54
2021/08/05 00:45:13;;;;;;;2.15;1.95;;;22.00;67.40;;;;;;4209282;28;20482;-53
2021/08/05 00:47:35;;;;;;;2.30;2.10;;;22.00;67.50;;;;;;4209497;28;20048;-51
2021/08/05 00:49:58;;;;;;;1.88;1.77;;;22.00;67.60;;;;;;4209479;28;20047;-54
2021/08/05 00:52:21;;;;;;;2.83;2.00;;;22.00;67.60;;;;;;4209192;28;20418;-53
2021/08/05 00:54:42;;;;;;;3.20;2.05;;;22.00;67.80;;;;;;4207854;28;20051;-51
2021/08/05 00:57:05;;;;;;;2.85;1.95;;;22.00;67.80;;;;;;4207894;28;20048;-53
2021/08/05 00:59:27;;;;;;;2.25;2.15;;;22.00;68.10;;;;;;4209647;28;20047;-52
2021/08/05 01:01:53;;;;;;;4.13;2.10;;;22.00;68.10;;;;;;4209756;28;20134;-53
2021/08/05 01:04:16;;;;;;;2.85;2.10;;;22.00;68.20;;;;;;4192314;28;20059;-54
2021/08/05 01:06:48;;;;;;;2.22;2.03;;;22.00;68.20;;;;;;4192668;28;20062;-52
2021/08/05 01:09:21;;;;;;;2.40;2.20;;;22.00;68.30;;;;;;4190842;28;20529;-53
2021/08/05 01:11:50;;;;;;;2.67;2.42;;;22.00;68.30;;;;;;4191052;28;20135;-53
2021/08/05 01:14:16;;;;;;;2.35;2.25;;;22.00;68.30;;;;;;4199409;28;20039;-52
2021/08/05 01:16:43;;;;;;;2.45;2.25;;;21.90;68.20;;;;;;4207842;28;20063;-52
2021/08/05 01:19:12;;;;;;;2.50;2.40;;;22.00;69.20;;;;;;4207463;28;20059;-49
2021/08/05 01:21:45;;;;;;;2.65;2.45;;;22.00;68.30;;;;;;4209308;28;20055;-51
2021/08/05 01:24:11;;;;;;;2.45;2.30;;;22.00;68.40;;;;;;4192351;28;20045;-53
2021/08/05 01:27:01;;;;;;;2.33;2.22;;;21.90;68.40;;;;;;4192301;28;20041;-51
2021/08/05 01:29:24;;;;;;;3.08;2.70;;;21.90;68.40;;;;;;4204851;28;20072;-50
2021/08/05 01:31:47;;;;;;;2.70;2.50;;;21.90;68.50;;;;;;4190788;28;20094;-51
2021/08/05 01:34:11;;;;;;;2.85;2.67;;;21.90;68.60;;;;;;4192076;28;20151;-50
2021/08/05 01:36:34;;;;;;;3.95;2.65;;;21.90;68.50;;;;;;4204615;28;20122;-52
2021/08/05 01:38:58;;;;;;;2.75;2.42;;;21.90;68.60;;;;;;4208518;28;20048;-51
2021/08/05 01:41:21;;;;;;;2.47;2.38;;;21.90;68.70;;;;;;4207401;28;20776;-54
2021/08/05 01:43:46;;;;;;;3.17;2.95;;;21.90;68.70;;;;;;4203174;28;20041;-53
2021/08/05 01:46:08;;;;;;;3.20;2.80;;;21.90;68.70;;;;;;4190647;28;20499;-52
2021/08/05 01:48:32;;;;;;;2.50;2.20;;;21.90;68.80;;;;;;4191882;28;20768;-53
2021/08/05 01:50:55;;;;;;;2.58;2.38;;;21.90;68.80;;;;;;4192333;28;20087;-49
2021/08/05 01:53:18;;;;;;;2.33;2.13;;;21.80;68.80;;;;;;4191567;28;20048;-54
2021/08/05 01:55:41;;;;;;;2.83;2.40;;;21.80;68.90;;;;;;4203699;28;20151;-50
2021/08/05 01:58:04;;;;;;;1.88;1.77;;;21.80;68.90;;;;;;4208346;28;20047;-49
2021/08/05 02:00:28;;;;;;;3.50;2.38;;;21.80;69.00;;;;;;4208491;28;20051;-51
2021/08/05 02:02:53;;;;;;;2.88;2.10;;;21.80;69.00;;;;;;4200153;28;20052;-50
2021/08/05 02:05:21;;;;;;;2.25;2.05;;;21.80;69.10;;;;;;4206865;28;20078;-52
2021/08/05 02:07:59;;;;;;;2.30;2.20;;;21.80;69.10;;;;;;4208377;28;20113;-53
2021/08/05 02:10:24;;;;;;;2.30;2.13;;;21.80;69.20;;;;;;4208374;28;20055;-49
2021/08/05 02:12:50;;;;;;;2.80;2.55;;;21.70;69.20;;;;;;4206716;28;20055;-52
2021/08/05 02:15:12;;;;;;;2.90;2.70;;;21.70;69.30;;;;;;4207821;28;20105;-50
2021/08/05 02:17:39;;;;;;;2.75;2.55;;;21.70;69.30;;;;;;4208026;28;20052;-51
2021/08/05 02:20:02;;;;;;;3.60;3.30;;;21.70;69.30;;;;;;4207682;28;20124;-49
2021/08/05 02:22:25;;;;;;;3.85;3.03;;;21.70;69.40;;;;;;4207866;28;20131;-53
2021/08/05 02:24:47;;;;;;;9.70;3.17;;;21.70;69.40;;;;;;4206843;28;20048;-54
2021/08/05 02:27:09;;;;;;;4.50;2.88;;;21.70;69.40;;;;;;4208104;28;20421;-52
2021/08/05 02:29:32;;;;;;;3.58;3.38;;;21.70;69.50;;;;;;4207061;28;20510;-51
2021/08/05 02:31:55;;;;;;;4.63;3.40;;;21.70;69.50;;;;;;4207917;28;20105;-52
2021/08/05 02:34:20;;;;;;;3.00;2.70;;;21.70;69.50;;;;;;4207839;28;20047;-55
2021/08/05 02:36:42;;;;;;;3.10;2.92;;;21.70;69.40;;;;;;4206399;28;20461;-51
2021/08/05 02:39:05;;;;;;;3.42;3.13;;;21.70;69.50;;;;;;4207696;28;20416;-50
2021/08/05 02:41:28;;;;;;;3.45;3.25;;;21.70;70.40;;;;;;4206475;28;20055;-52
2021/08/05 02:43:51;;;;;;;3.22;3.03;;;21.70;69.60;;;;;;4189632;28;20048;-51
2021/08/05 02:46:15;;;;;;;4.05;3.08;;;21.70;69.50;;;;;;4204188;28;20485;-49
2021/08/05 02:48:38;;;;;;;3.70;3.40;;;21.70;69.50;;;;;;4191310;28;20045;-50
2021/08/05 02:51:02;;;;;;;3.70;3.40;;;21.70;69.50;;;;;;4191540;28;20129;-53
2021/08/05 02:53:25;;;;;;;4.45;3.13;;;21.70;69.60;;;;;;4190736;28;20048;-53
2021/08/05 02:55:48;;;;;;;3.65;3.40;;;21.70;69.60;;;;;;4190959;28;20513;-51
2021/08/05 02:58:11;;;;;;;4.55;3.53;;;21.70;69.60;;;;;;4197744;28;20452;-48
2021/08/05 03:00:33;;;;;;;4.38;4.07;;;21.70;70.60;;;;;;4207582;28;20810;-51
2021/08/05 03:02:56;;;;;;;4.00;3.58;;;21.60;69.70;;;;;;4207313;28;20382;-51
2021/08/05 03:05:18;;;;;;;3.70;3.50;;;21.60;69.70;;;;;;4206579;28;20580;-49
2021/08/05 03:07:42;;;;;;;4.57;3.67;;;21.60;69.70;;;;;;4205199;28;20044;-51
2021/08/05 03:10:06;;;;;;;4.22;3.92;;;21.60;69.80;;;;;;4191058;28;20572;-51
2021/08/05 03:12:28;;;;;;;4.70;4.20;;;21.60;69.80;;;;;;4191196;28;20056;-50
2021/08/05 03:14:51;;;;;;;3.80;3.53;;;21.60;69.90;;;;;;4190951;28;20083;-48
2021/08/05 03:17:13;;;;;;;5.85;5.32;;;21.60;69.90;;;;;;4190773;28;21281;-52
2021/08/05 03:19:36;;;;;;;6.00;5.40;;;21.60;69.90;;;;;;4191331;28;20524;-53
2021/08/05 03:21:58;;;;;;;5.88;5.38;;;21.60;70.00;;;;;;4190328;28;20041;-50
2021/08/05 03:24:22;;;;;;;5.82;5.32;;;21.60;69.90;;;;;;4197151;28;20498;-50
2021/08/05 03:26:44;;;;;;;6.95;6.28;;;21.60;70.00;;;;;;4207291;28;20428;-51
2021/08/05 03:29:06;;;;;;;7.45;6.70;;;21.60;70.10;;;;;;4207625;28;20056;-49
2021/08/05 03:31:28;;;;;;;9.52;6.78;;;21.50;70.00;;;;;;4207004;28;20094;-51
2021/08/05 03:33:51;;;;;;;8.60;7.03;;;21.60;70.10;;;;;;4207350;28;20059;-52
2021/08/05 03:36:13;;;;;;;9.25;8.30;;;21.50;70.10;;;;;;4207248;28;20117;-49
2021/08/05 03:38:35;;;;;;;9.00;8.18;;;21.50;70.10;;;;;;4190667;28;20423;-53
2021/08/05 03:41:01;;;;;;;9.15;8.13;;;21.50;70.20;;;;;;4190242;28;20506;-50
2021/08/05 03:43:23;;;;;;;8.38;7.55;;;21.50;70.20;;;;;;4190809;28;20176;-49
2021/08/05 03:45:45;;;;;;;7.80;7.10;;;21.50;70.30;;;;;;4190739;28;20052;-49
2021/08/05 03:48:07;;;;;;;9.65;8.07;;;21.50;70.20;;;;;;4205620;28;20048;-52
2021/08/05 03:50:29;;;;;;;7.45;6.78;;;21.50;70.20;;;;;;4207629;28;20485;-54
2021/08/05 03:52:51;;;;;;;7.15;6.30;;;21.50;70.30;;;;;;4207468;28;20093;-51
2021/08/05 03:55:14;;;;;;;9.75;7.32;;;21.50;70.40;;;;;;4207120;28;20405;-52
2021/08/05 03:57:37;;;;;;;7.10;6.40;;;21.50;70.50;;;;;;4210669;28;20109;-53
2021/08/05 03:59:59;;;;;;;7.35;6.72;;;21.40;70.30;;;;;;4210325;28;20054;-54
2021/08/05 04:02:21;;;;;;;7.65;6.95;;;21.40;70.40;;;;;;4210228;28;20058;-52
2021/08/05 04:04:44;;;;;;;7.55;6.93;;;21.40;70.50;;;;;;4197547;28;20059;-54
2021/08/05 04:07:06;;;;;;;14.05;8.02;;;21.40;70.50;;;;;;4193404;28;20090;-54
2021/08/05 04:09:28;;;;;;;7.60;7.00;;;21.40;70.60;;;;;;4193690;28;20106;-55
2021/08/05 04:11:51;;;;;;;8.27;7.40;;;21.40;70.50;;;;;;4193733;28;20049;-51
2021/08/05 04:14:14;;;;;;;9.63;7.85;;;21.40;70.60;;;;;;4206277;28;20043;-55
2021/08/05 04:16:36;;;;;;;7.88;7.18;;;21.40;70.60;;;;;;4193051;28;20138;-49
2021/08/05 04:18:58;;;;;;;7.70;7.05;;;21.40;70.70;;;;;;4193672;28;20061;-53
2021/08/05 04:21:20;;;;;;;8.02;7.22;;;21.30;70.80;;;;;;4193434;28;20052;-51
2021/08/05 04:23:42;;;;;;;8.30;7.45;;;21.30;71.80;;;;;;4193044;28;20045;-54
2021/08/05 04:26:05;;;;;;;8.70;7.80;;;21.30;70.90;;;;;;4193435;28;20044;-52
2021/08/05 04:28:27;;;;;;;7.70;6.93;;;21.30;71.00;;;;;;4193544;28;20048;-54
2021/08/05 04:30:51;;;;;;;7.80;7.00;;;21.30;71.00;;;;;;4193224;28;20135;-52
2021/08/05 04:33:13;;;;;;;7.32;6.63;;;21.30;71.00;;;;;;4192291;28;20128;-50
2021/08/05 04:35:35;;;;;;;7.85;7.05;;;21.30;70.90;;;;;;4193315;28;20049;-53
2021/08/05 04:38:00;;;;;;;10.05;7.35;;;21.30;71.00;;;;;;4193156;28;20494;-55
2021/08/05 04:40:23;;;;;;;8.18;7.38;;;21.30;71.00;;;;;;4193168;28;20048;-52
2021/08/05 04:42:45;;;;;;;8.32;7.55;;;21.30;71.20;;;;;;4192525;28;20127;-55
2021/08/05 04:45:08;;;;;;;9.02;7.63;;;21.30;71.00;;;;;;4193052;28;20041;-54
2021/08/05 04:47:32;;;;;;;8.45;7.65;;;21.30;71.00;;;;;;4192886;28;20135;-55
2021/08/05 04:49:54;;;;;;;8.32;7.63;;;21.30;71.20;;;;;;4206770;28;20048;-52
2021/08/05 04:52:16;;;;;;;8.55;7.75;;;21.30;71.20;;;;;;4207881;28;20548;-51
2021/08/05 04:54:38;;;;;;;9.35;7.25;;;21.30;71.10;;;;;;4209334;27;20418;-53
2021/08/05 04:57:00;;;;;;;8.38;7.57;;;21.30;71.10;;;;;;4209312;27;20048;-54
2021/08/05 04:59:23;;;;;;;8.90;8.10;;;21.30;70.90;;;;;;4207464;27;20048;-54
2021/08/05 05:01:44;;;;;;;8.13;7.28;;;21.30;70.80;;;;;;4209150;28;22129;-55
2021/08/05 05:04:08;;;;;;;7.10;6.28;;;21.40;70.80;;;;;;4209336;28;20056;-50
2021/08/05 05:06:30;;;;;;;7.68;6.97;;;21.40;70.60;;;;;;4206629;28;20060;-54
2021/08/05 05:08:52;;;;;;;9.68;7.72;;;21.40;70.60;;;;;;4208773;28;20073;-54
2021/08/05 05:11:15;;;;;;;9.20;6.82;;;21.30;71.30;;;;;;4209273;28;20460;-52
2021/08/05 05:13:37;;;;;;;8.00;7.30;;;21.40;70.70;;;;;;4203666;28;20494;-54
2021/08/05 05:15:59;;;;;;;8.90;7.75;;;21.40;70.80;;;;;;4196851;28;20052;-50
2021/08/05 05:18:23;;;;;;;10.35;9.00;;;21.40;70.80;;;;;;4176024;28;20584;-49
2021/08/05 05:20:47;;;;;;;8.63;7.72;;;21.40;70.70;;;;;;4192676;28;20525;-52
2021/08/05 05:23:10;;;;;;;8.55;7.70;;;21.40;70.80;;;;;;4192303;28;20127;-52
2021/08/05 05:25:33;;;;;;;13.73;8.13;;;21.30;70.70;;;;;;4202910;28;20491;-51
2021/08/05 05:27:55;;;;;;;8.45;7.63;;;21.30;70.70;;;;;;4208756;28;20093;-51
2021/08/05 05:30:18;;;;;;;8.07;7.35;;;21.30;70.70;;;;;;4209103;28;20071;-49
2021/08/05 05:32:43;;;;;;;9.10;8.23;;;21.40;71.50;;;;;;4208719;28;20044;-52
2021/08/05 05:35:07;;;;;;;7.97;7.28;;;21.40;71.10;;;;;;4208276;28;20047;-53
2021/08/05 05:37:30;;;;;;;9.00;8.20;;;21.40;70.80;;;;;;4207969;28;20068;-52
2021/08/05 05:39:53;;;;;;;9.15;8.23;;;21.40;71.60;;;;;;4210237;28;20060;-51
2021/08/05 05:42:16;;;;;;;8.95;8.05;;;21.40;70.60;;;;;;4201126;28;20483;-49
2021/08/05 05:44:38;;;;;;;10.35;9.40;;;21.40;70.70;;;;;;4208341;28;20555;-50
2021/08/05 05:47:00;;;;;;;9.80;8.90;;;21.30;71.50;;;;;;4208438;28;20774;-51
2021/08/05 05:49:22;;;;;;;8.32;7.63;;;21.30;70.70;;;;;;4208889;28;20075;-50
2021/08/05 05:51:44;;;;;;;9.98;8.88;;;21.30;70.80;;;;;;4208917;28;20044;-52
2021/08/05 05:54:08;;;;;;;10.88;8.93;;;21.30;70.80;;;;;;4207125;28;20044;-52
2021/08/05 05:56:30;;;;;;;10.65;9.40;;;21.30;70.80;;;;;;4208326;28;20055;-54
2021/08/05 05:58:52;;;;;;;10.23;9.23;;;21.30;70.80;;;;;;4207072;28;20048;-51
2021/08/05 06:01:15;;;;;;;10.60;9.60;;;21.30;70.90;;;;;;4202207;28;20081;-52
2021/08/05 06:03:37;;;;;;;10.70;9.60;;;21.30;70.90;;;;;;4208600;28;20482;-52
2021/08/05 06:06:00;;;;;;;11.27;10.07;;;21.30;70.90;;;;;;4208428;28;20036;-51
2021/08/05 06:08:23;;;;;;;11.02;9.93;;;21.30;70.90;;;;;;4205823;28;20073;-54
2021/08/05 06:10:47;;;;;;;11.75;10.55;;;21.30;71.00;;;;;;4208147;28;20052;-53
2021/08/05 06:13:09;;;;;;;11.82;10.65;;;21.40;72.00;;;;;;4208300;28;20551;-53
2021/08/05 06:15:31;;;;;;;12.23;10.45;;;21.50;72.50;;;;;;4208476;28;20109;-57
2021/08/05 06:17:53;;;;;;;11.30;10.20;;;21.50;72.20;;;;;;4199744;28;20063;-52
2021/08/05 06:20:18;;;;;;;12.70;10.73;;;21.60;72.10;;;;;;4208185;28;20086;-51
2021/08/05 06:22:42;;;;;;;10.45;9.35;;;21.60;71.60;;;;;;4191352;28;20045;-54
2021/08/05 06:25:04;;;;;;;10.57;9.45;;;21.50;71.60;;;;;;4191433;28;20071;-51
2021/08/05 06:27:28;;;;;;;11.85;10.65;;;21.50;71.60;;;;;;4203026;28;20048;-49
2021/08/05 06:29:50;;;;;;;12.85;11.45;;;21.50;71.70;;;;;;4208246;28;20123;-56
2021/08/05 06:32:12;;;;;;;11.82;8.85;;;21.50;71.80;;;;;;4207777;28;20072;-52
2021/08/05 06:34:34;;;;;;;11.48;10.32;;;21.40;71.90;;;;;;4206671;28;20052;-51
2021/08/05 06:36:56;;;;;;;12.05;10.85;;;21.50;72.80;;;;;;4207778;28;20147;-54
2021/08/05 06:39:18;;;;;;;10.95;9.93;;;21.50;71.90;;;;;;4207690;28;20044;-51
2021/08/05 06:41:40;;;;;;;11.50;10.40;;;21.50;72.10;;;;;;4207683;28;20117;-57
2021/08/05 06:44:04;;;;;;;13.90;10.32;;;21.40;72.00;;;;;;4208103;28;20097;-52
2021/08/05 06:46:26;;;;;;;11.13;10.02;;;21.40;72.10;;;;;;4208236;28;20052;-53
2021/08/05 06:48:48;;;;;;;10.95;9.52;;;21.40;72.10;;;;;;4207886;28;20040;-53
2021/08/05 06:51:10;;;;;;;11.25;10.15;;;21.40;72.30;;;;;;4208232;28;21021;-53
2021/08/05 06:53:33;;;;;;;12.50;10.85;;;21.40;72.30;;;;;;4208027;28;20445;-51
2021/08/05 06:55:55;;;;;;;11.35;10.25;;;21.50;72.40;;;;;;4207941;28;20044;-53
2021/08/05 06:58:19;;;;;;;10.52;9.43;;;21.50;72.50;;;;;;4207711;28;20052;-53
2021/08/05 07:00:43;;;;;;;9.65;8.70;;;21.50;72.40;;;;;;4207893;28;20844;-51
2021/08/05 07:03:05;;;;;;;9.40;8.43;;;21.50;72.30;;;;;;4207607;28;20055;-53
2021/08/05 07:05:27;;;;;;;9.05;8.25;;;21.50;72.20;;;;;;4199530;28;20041;-56
2021/08/05 07:07:50;;;;;;;8.93;8.02;;;21.50;72.20;;;;;;4191361;28;20517;-54
2021/08/05 07:10:13;;;;;;;9.20;8.38;;;21.50;72.20;;;;;;4190785;28;20080;-53
2021/08/05 07:12:36;;;;;;;10.10;9.10;;;21.60;72.20;;;;;;4191233;28;20212;-54
2021/08/05 07:14:58;;;;;;;10.45;9.48;;;21.60;72.30;;;;;;4191186;28;20062;-53
2021/08/05 07:17:22;;;;;;;9.73;8.68;;;21.70;72.30;;;;;;4191141;28;20040;-52
2021/08/05 07:19:44;;;;;;;8.32;7.53;;;21.80;71.90;;;;;;4191183;28;20048;-51
2021/08/05 07:22:06;;;;;;;8.40;7.57;;;21.80;71.70;;;;;;4207787;28;20060;-57
2021/08/05 07:24:28;;;;;;;8.38;7.53;;;21.90;72.50;;;;;;4207919;28;20126;-54
2021/08/05 07:26:50;;;;;;;8.95;7.45;;;21.90;71.20;;;;;;4207769;28;20047;-52
2021/08/05 07:29:13;;;;;;;8.27;7.47;;;22.00;70.90;;;;;;4207678;28;20070;-53
2021/08/05 07:31:35;;;;;;;8.27;7.47;;;22.10;70.60;;;;;;4211051;28;20109;-52
2021/08/05 07:33:59;;;;;;;7.25;6.57;;;22.20;70.40;;;;;;4209628;28;20089;-52
2021/08/05 07:36:22;;;;;;;6.90;6.18;;;22.30;70.10;;;;;;4210844;28;20414;-53
2021/08/05 07:38:44;;;;;;;6.30;5.78;;;22.30;69.90;;;;;;4211083;28;20048;-54
2021/08/05 07:41:06;;;;;;;6.68;6.05;;;22.40;69.70;;;;;;4210920;28;20089;-54
2021/08/05 07:43:28;;;;;;;7.05;6.35;;;22.40;69.60;;;;;;4209593;28;20054;-52
2021/08/05 07:45:50;;;;;;;7.50;6.88;;;22.40;69.80;;;;;;4210842;28;20044;-54
2021/08/05 07:48:13;;;;;;;7.28;6.68;;;22.40;69.90;;;;;;4210818;28;20119;-52
2021/08/05 07:50:37;;;;;;;8.95;7.32;;;22.40;70.90;;;;;;4194179;28;20146;-54
2021/08/05 07:52:59;;;;;;;7.88;7.18;;;22.40;70.30;;;;;;4193972;28;20048;-52
2021/08/05 07:55:21;;;;;;;8.45;6.57;;;22.40;70.20;;;;;;4194007;28;20052;-53
2021/08/05 07:57:43;;;;;;;6.95;6.28;;;22.40;70.20;;;;;;4193693;28;20048;-53
2021/08/05 08:00:07;;;;;;;6.63;6.00;;;22.40;70.20;;;;;;4193601;28;20052;-50
2021/08/05 08:02:36;;;;;;;6.68;6.00;;;22.40;70.30;;;;;;4193531;28;20511;-52
2021/08/05 08:04:58;;;;;;;7.00;6.18;;;22.40;70.30;;;;;;4193596;28;20129;-52
2021/08/05 08:07:21;;;;;;;6.38;5.78;;;22.40;70.30;;;;;;4210964;28;20044;-55
2021/08/05 08:09:44;;;;;;;5.90;5.40;;;22.40;70.30;;;;;;4210746;28;20554;-49
2021/08/05 08:12:06;;;;;;;5.75;5.25;;;22.50;71.10;;;;;;4210491;28;20074;-55
2021/08/05 08:14:28;;;;;;;5.07;4.68;;;22.50;70.30;;;;;;4211004;28;20055;-51
2021/08/05 08:16:50;;;;;;;5.30;4.80;;;22.50;70.20;;;;;;4210390;28;20055;-52
2021/08/05 08:19:13;;;;;;;4.60;4.20;;;22.50;70.10;;;;;;4206522;28;20525;-54
2021/08/05 08:21:35;;;;;;;5.45;5.00;;;22.60;70.10;;;;;;4193256;28;20052;-55
2021/08/05 08:23:59;;;;;;;4.70;4.35;;;22.60;70.20;;;;;;4193548;28;20040;-51
2021/08/05 08:26:21;;;;;;;5.20;4.80;;;22.60;69.90;;;;;;4193674;28;20072;-50
2021/08/05 08:28:43;;;;;;;4.90;4.50;;;22.60;70.00;;;;;;4193723;28;20138;-54
2021/08/05 08:31:05;;;;;;;4.90;4.50;;;22.60;69.70;;;;;;4193567;28;20098;-55
2021/08/05 08:33:27;;;;;;;4.15;3.85;;;22.60;69.80;;;;;;4193508;28;20057;-53
2021/08/05 08:35:49;;;;;;;4.28;4.00;;;22.70;70.00;;;;;;4193311;28;20044;-54
2021/08/05 08:38:12;;;;;;;5.82;4.85;;;22.70;69.90;;;;;;4193374;28;20055;-52
2021/08/05 08:40:35;;;;;;;4.25;3.95;;;22.70;69.80;;;;;;4193336;28;20132;-53
2021/08/05 08:43:00;;;;;;;4.68;4.38;;;22.70;69.70;;;;;;4192994;28;20116;-52
2021/08/05 08:45:22;;;;;;;4.57;4.18;;;22.80;69.80;;;;;;4193301;28;20102;-53
2021/08/05 08:47:48;;;;;;;4.72;3.92;;;22.80;69.90;;;;;;4193145;28;20072;-52
2021/08/05 08:50:10;;;;;;;4.10;3.80;;;22.80;69.70;;;;;;4193040;28;20470;-52
2021/08/05 08:52:36;;;;;;;4.03;3.72;;;22.80;69.50;;;;;;4193323;28;20048;-54
2021/08/05 08:54:59;;;;;;;4.45;4.07;;;22.80;69.60;;;;;;4193112;28;20075;-52
2021/08/05 08:57:26;;;;;;;3.70;3.50;;;22.90;69.60;;;;;;4193366;28;20044;-52
2021/08/05 08:59:50;;;;;;;4.10;3.63;;;22.90;70.00;;;;;;4191993;28;20123;-54
2021/08/05 09:02:13;;;;;;;3.90;3.60;;;22.90;69.50;;;;;;4192983;28;20052;-53
2021/08/05 09:04:36;;;;;;;6.00;4.20;;;22.90;69.50;;;;;;4192772;28;20052;-55
2021/08/05 09:06:58;;;;;;;4.80;4.40;;;23.00;69.50;;;;;;4192879;28;20156;-52
2021/08/05 09:09:20;;;;;;;4.07;3.38;;;23.00;69.40;;;;;;4192848;28;20074;-53
2021/08/05 09:11:42;;;;;;;3.90;3.60;;;23.00;69.10;;;;;;4191580;28;20048;-49
2021/08/05 09:14:05;;;;;;;4.97;4.00;;;23.00;69.00;;;;;;4193019;28;20164;-54
2021/08/05 09:16:29;;;;;;;3.40;3.20;;;23.10;68.80;;;;;;4192801;28;20049;-54
2021/08/05 09:18:52;;;;;;;3.03;2.72;;;23.10;68.60;;;;;;4207934;28;20131;-55
2021/08/05 09:21:17;;;;;;;3.67;3.40;;;23.20;68.40;;;;;;4209468;28;20067;-50
2021/08/05 09:23:53;;;;;;;4.00;3.70;;;23.10;68.10;;;;;;4209780;28;20168;-54
2021/08/05 09:26:42;;;;;;;3.90;3.60;;;23.20;68.20;;;;;;4208870;28;20607;-51
2021/08/05 09:29:13;;;;;;;3.83;3.35;;;23.20;67.80;;;;;;4203123;28;20483;-55
2021/08/05 09:31:38;;;;;;;5.85;3.58;;;23.30;67.80;;;;;;4207574;28;20054;-53
2021/08/05 09:34:06;;;;;;;4.20;3.90;;;23.30;67.60;;;;;;4209141;28;20650;-54
2021/08/05 09:36:28;;;;;;;3.42;3.20;;;23.30;67.40;;;;;;4209105;28;20102;-53
2021/08/05 09:38:51;;;;;;;3.53;3.17;;;23.40;67.20;;;;;;4209148;28;20044;-53
2021/08/05 09:41:13;;;;;;;3.88;3.58;;;23.40;66.90;;;;;;4208768;28;20079;-59
2021/08/05 09:43:38;;;;;;;3.00;2.80;;;23.50;67.20;;;;;;4208942;28;20767;-54
2021/08/05 09:46:02;;;;;;;3.58;3.28;;;23.50;67.00;;;;;;4209171;28;20739;-53
2021/08/05 09:48:37;;;;;;;3.22;2.92;;;23.50;66.90;;;;;;4208265;28;20047;-50
2021/08/05 09:51:05;;;;;;;3.45;3.22;;;23.50;66.70;;;;;;4208855;28;20040;-54
2021/08/05 09:53:27;;;;;;;2.75;2.55;;;23.50;66.80;;;;;;4208675;28;20044;-56
2021/08/05 09:55:49;;;;;;;2.67;2.50;;;23.50;66.60;;;;;;4208408;28;20127;-51
2021/08/05 09:58:12;;;;;;;2.67;2.47;;;23.60;66.40;;;;;;4208935;28;20044;-54
2021/08/05 10:00:54;;;;;;;2.75;2.55;;;23.60;66.20;;;;;;4208299;28;20075;-52
2021/08/05 10:03:30;;;;;;;2.90;2.65;;;23.60;66.20;;;;;;4208920;28;20467;-54
2021/08/05 10:05:58;;;;;;;3.45;3.22;;;23.70;65.80;;;;;;4208288;28;20044;-53
2021/08/05 10:08:33;;;;;;;3.42;3.03;;;23.70;65.80;;;;;;4208429;28;20055;-51
2021/08/05 10:10:55;;;;;;;3.33;3.03;;;23.70;65.60;;;;;;4208440;28;20767;-54
2021/08/05 10:13:27;;;;;;;3.10;2.90;;;23.80;65.50;;;;;;4208384;28;20157;-53
2021/08/05 10:15:51;;;;;;;3.75;2.80;;;23.80;65.40;;;;;;4209019;28;20052;-52
2021/08/05 10:18:13;;;;;;;3.15;2.58;;;23.80;65.30;;;;;;4208181;28;20051;-54
2021/08/05 10:20:37;;;;;;;2.90;2.60;;;23.80;65.20;;;;;;4208451;28;20051;-50
2021/08/05 10:22:59;;;;;;;4.07;2.97;;;23.90;65.30;;;;;;4207101;28;20089;-54
2021/08/05 10:25:25;;;;;;;3.47;3.17;;;23.90;65.20;;;;;;4208467;28;20075;-53
2021/08/05 10:27:48;;;;;;;3.80;3.50;;;23.90;65.10;;;;;;4208245;28;20127;-51
2021/08/05 10:30:13;;;;;;;5.18;3.60;;;23.90;64.90;;;;;;4207951;28;20056;-52
2021/08/05 10:32:37;;;;;;;3.22;2.92;;;23.90;64.90;;;;;;4208347;28;20052;-53
2021/08/05 10:35:01;;;;;;;3.97;3.58;;;23.90;64.80;;;;;;4208453;28;20071;-52
2021/08/05 10:37:24;;;;;;;5.10;3.35;;;23.90;64.70;;;;;;4208431;28;20406;-52
2021/08/05 10:39:48;;;;;;;4.05;3.75;;;24.00;64.70;;;;;;4208042;28;20036;-51
2021/08/05 10:42:12;;;;;;;7.13;3.95;;;24.00;64.70;;;;;;4208281;28;20392;-55
2021/08/05 10:44:35;;;;;;;8.18;3.97;;;24.00;64.70;;;;;;4208253;28;20052;-55
2021/08/05 10:46:59;;;;;;;4.78;3.50;;;24.00;64.70;;;;;;4207961;28;20044;-54
2021/08/05 10:49:23;;;;;;;5.53;4.20;;;24.00;64.60;;;;;;4191358;28;20041;-52
2021/08/05 10:51:45;;;;;;;3.10;2.90;;;24.00;64.50;;;;;;4191442;28;20102;-55
2021/08/05 10:54:09;;;;;;;5.03;4.60;;;24.10;64.50;;;;;;4191303;28;20570;-53
2021/08/05 10:56:32;;;;;;;3.10;2.83;;;24.10;64.40;;;;;;4191596;28;20106;-53
2021/08/05 10:59:07;;;;;;;4.20;3.30;;;24.10;64.30;;;;;;4191201;28;20131;-56
2021/08/05 11:01:47;;;;;;;3.80;3.50;;;24.20;65.10;;;;;;4174711;28;20514;-52
2021/08/05 11:04:30;;;;;;;10.57;3.20;;;24.20;64.10;;;;;;4173785;28;20146;-55
2021/08/05 11:06:53;;;;;;;3.10;2.80;;;24.20;64.00;;;;;;4191237;28;20044;-55
2021/08/05 11:09:40;;;;;;;3.58;2.70;;;24.20;63.90;;;;;;4191344;28;20049;-53
2021/08/05 11:12:36;;;;;;;2.90;2.75;;;24.30;63.80;;;;;;4197657;28;20092;-55
2021/08/05 11:14:58;;;;;;;2.92;2.70;;;24.30;63.70;;;;;;4190898;28;20052;-52
2021/08/05 11:17:20;;;;;;;2.75;2.55;;;24.30;63.60;;;;;;4191249;28;20105;-52
2021/08/05 11:19:42;;;;;;;2.55;2.45;;;24.40;63.60;;;;;;4191073;28;20498;-50
2021/08/05 11:22:52;;;;;;;2.42;2.22;;;24.40;63.40;;;;;;4190962;28;20564;-51
2021/08/05 11:25:17;;;;;;;3.45;3.15;;;24.50;63.30;;;;;;4190659;28;20053;-53
2021/08/05 11:27:44;;;;;;;2.72;2.53;;;24.50;63.10;;;;;;4190838;28;20060;-55
2021/08/05 11:30:46;;;;;;;4.63;3.33;;;24.50;63.10;;;;;;4190937;28;20698;-55
2021/08/05 11:33:28;;;;;;;;;;;24.50;63.10;;;;;;4182128;28;20056;-51
2021/08/05 11:36:20;;;;;;;3.17;2.88;;;24.50;62.90;;;;;;4190922;28;19924;-55
2021/08/05 11:39:09;;;;;;;3.17;2.95;;;24.50;62.80;;;;;;4190875;28;20049;-55
2021/08/05 11:42:03;;;;;;;3.90;3.22;;;24.50;62.80;;;;;;4190736;28;20080;-52
2021/08/05 11:44:38;;;;;;;4.65;2.80;;;24.60;62.90;;;;;;4189151;28;20052;-53
2021/08/05 11:47:22;;;;;;;3.83;3.53;;;24.60;62.80;;;;;;4192773;28;20151;-59
2021/08/05 11:49:45;;;;;;;4.95;3.47;;;24.60;62.60;;;;;;4207592;28;20051;-52
2021/08/05 11:52:12;;;;;;;4.82;3.80;;;24.60;63.50;;;;;;4207289;28;20058;-54
2021/08/05 11:54:34;;;;;;;3.70;3.40;;;24.70;62.60;;;;;;4207582;28;20502;-52
2021/08/05 11:57:01;;;;;;;3.92;3.63;;;24.60;62.40;;;;;;4207516;28;20047;-55
2021/08/05 11:59:33;;;;;;;3.40;3.10;;;24.70;62.40;;;;;;4207312;28;20054;-55
2021/08/05 12:02:04;;;;;;;2.88;2.58;;;24.80;62.20;;;;;;4207276;28;20056;-56
2021/08/05 12:04:26;;;;;;;4.13;2.70;;;24.80;62.10;;;;;;4207291;28;20418;-54
2021/08/05 12:06:48;;;;;;;2.63;2.45;;;24.80;62.00;;;;;;4207238;28;20093;-52
2021/08/05 12:09:14;;;;;;;2.28;2.17;;;24.80;62.00;;;;;;4207578;28;20051;-52
2021/08/05 12:11:36;;;;;;;2.38;2.22;;;24.90;62.00;;;;;;4207593;28;20413;-53
2021/08/05 12:14:16;;;;;;;3.80;3.05;;;24.90;61.90;;;;;;4207305;28;20044;-52
2021/08/05 12:16:43;;;;;;;3.15;3.05;;;25.00;61.80;;;;;;4207952;28;20044;-51
2021/08/05 12:19:05;;;;;;;4.95;3.00;;;25.00;61.80;;;;;;4195944;28;20123;-53
2021/08/05 12:21:32;;;;;;;3.08;2.75;;;25.00;61.80;;;;;;4193514;28;20053;-54
2021/08/05 12:23:54;;;;;;;2.97;2.70;;;25.00;61.80;;;;;;4193427;28;20044;-50
2021/08/05 12:26:18;;;;;;;3.25;2.95;;;25.00;61.80;;;;;;4193714;28;20476;-52
2021/08/05 12:28:42;;;;;;;4.13;3.35;;;25.00;61.80;;;;;;4193717;28;20146;-52
2021/08/05 12:31:07;;;;;;;3.10;2.90;;;25.10;61.90;;;;;;4193516;28;20046;-50